sensor_id;sensor_type;location;lat;lon;timestamp;P1;durP1;ratioP1;P2;durP2;ratioP2
20669;SDS011;10494;50.868;4.180;2022-07-18T00:01:59;5.90;;;2.80;;
20669;SDS011;10494;50.868;4.180;2022-07-18T00:04:26;3.40;;;2.10;;
20669;SDS011;10494;50.868;4.180;2022-07-18T00:06:53;4.07;;;2.63;;
20669;SDS011;10494;50.868;4.180;2022-07-18T00:09:19;5.13;;;2.20;;
20669;SDS011;10494;50.868;4.180;2022-07-18T00:11:47;4.10;;;2.28;;
20669;SDS011;10494;50.868;4.180;2022-07-18T00:14:13;8.68;;;2.70;;
20669;SDS011;10494;50.868;4.180;2022-07-18T00:16:38;3.35;;;2.30;;
20669;SDS011;10494;50.868;4.180;2022-07-18T00:19:04;7.03;;;3.03;;
20669;SDS011;10494;50.868;4.180;2022-07-18T00:21:31;4.28;;;2.45;;
20669;SDS011;10494;50.868;4.180;2022-07-18T00:23:57;5.82;;;2.80;;
20669;SDS011;10494;50.868;4.180;2022-07-18T00:26:23;3.60;;;2.13;;
20669;SDS011;10494;50.868;4.180;2022-07-18T00:28:48;4.70;;;2.50;;
20669;SDS011;10494;50.868;4.180;2022-07-18T00:31:14;5.03;;;2.72;;
20669;SDS011;10494;50.868;4.180;2022-07-18T00:33:40;3.15;;;2.55;;
20669;SDS011;10494;50.868;4.180;2022-07-18T00:36:06;3.55;;;2.30;;
20669;SDS011;10494;50.868;4.180;2022-07-18T00:38:31;4.65;;;2.63;;
20669;SDS011;10494;50.868;4.180;2022-07-18T00:40:57;6.05;;;3.00;;
20669;SDS011;10494;50.868;4.180;2022-07-18T00:43:23;7.25;;;3.08;;
20669;SDS011;10494;50.868;4.180;2022-07-18T00:45:48;5.18;;;2.70;;
20669;SDS011;10494;50.868;4.180;2022-07-18T00:48:15;9.07;;;2.92;;
20669;SDS011;10494;50.868;4.180;2022-07-18T00:50:41;7.30;;;2.97;;
20669;SDS011;10494;50.868;4.180;2022-07-18T00:53:08;7.90;;;3.05;;
20669;SDS011;10494;50.868;4.180;2022-07-18T00:55:36;5.15;;;2.60;;
20669;SDS011;10494;50.868;4.180;2022-07-18T00:58:07;4.38;;;2.28;;
20669;SDS011;10494;50.868;4.180;2022-07-18T01:00:33;8.30;;;2.60;;
20669;SDS011;10494;50.868;4.180;2022-07-18T01:03:18;4.93;;;2.50;;
20669;SDS011;10494;50.868;4.180;2022-07-18T01:05:43;5.60;;;2.65;;
20669;SDS011;10494;50.868;4.180;2022-07-18T01:08:09;6.28;;;2.47;;
20669;SDS011;10494;50.868;4.180;2022-07-18T01:10:34;5.82;;;2.33;;
20669;SDS011;10494;50.868;4.180;2022-07-18T01:13:00;5.78;;;2.47;;
20669;SDS011;10494;50.868;4.180;2022-07-18T01:15:26;4.88;;;2.63;;
20669;SDS011;10494;50.868;4.180;2022-07-18T01:17:51;5.07;;;2.45;;
20669;SDS011;10494;50.868;4.180;2022-07-18T01:20:17;5.70;;;2.40;;
20669;SDS011;10494;50.868;4.180;2022-07-18T01:22:43;9.02;;;3.03;;
20669;SDS011;10494;50.868;4.180;2022-07-18T01:25:09;6.40;;;2.75;;
20669;SDS011;10494;50.868;4.180;2022-07-18T01:27:35;8.48;;;4.32;;
20669;SDS011;10494;50.868;4.180;2022-07-18T01:30:01;5.50;;;2.85;;
20669;SDS011;10494;50.868;4.180;2022-07-18T01:32:28;4.63;;;2.67;;
20669;SDS011;10494;50.868;4.180;2022-07-18T01:34:53;4.15;;;2.70;;
20669;SDS011;10494;50.868;4.180;2022-07-18T01:37:19;5.30;;;2.78;;
20669;SDS011;10494;50.868;4.180;2022-07-18T01:39:45;3.88;;;2.65;;
20669;SDS011;10494;50.868;4.180;2022-07-18T01:42:11;5.35;;;3.20;;
20669;SDS011;10494;50.868;4.180;2022-07-18T01:44:38;7.10;;;3.10;;
20669;SDS011;10494;50.868;4.180;2022-07-18T01:47:05;7.88;;;3.25;;
20669;SDS011;10494;50.868;4.180;2022-07-18T01:49:31;6.30;;;3.40;;
20669;SDS011;10494;50.868;4.180;2022-07-18T01:51:58;4.30;;;2.97;;
20669;SDS011;10494;50.868;4.180;2022-07-18T01:54:25;6.97;;;3.30;;
20669;SDS011;10494;50.868;4.180;2022-07-18T01:56:52;8.18;;;3.20;;
20669;SDS011;10494;50.868;4.180;2022-07-18T01:59:18;7.03;;;3.42;;
20669;SDS011;10494;50.868;4.180;2022-07-18T02:01:44;6.70;;;3.30;;
20669;SDS011;10494;50.868;4.180;2022-07-18T02:04:10;3.88;;;2.60;;
20669;SDS011;10494;50.868;4.180;2022-07-18T02:06:36;6.82;;;3.30;;
20669;SDS011;10494;50.868;4.180;2022-07-18T02:09:02;5.70;;;3.03;;
20669;SDS011;10494;50.868;4.180;2022-07-18T02:11:28;5.22;;;2.90;;
20669;SDS011;10494;50.868;4.180;2022-07-18T02:13:54;9.30;;;3.38;;
20669;SDS011;10494;50.868;4.180;2022-07-18T02:16:19;4.13;;;2.60;;
20669;SDS011;10494;50.868;4.180;2022-07-18T02:18:45;6.13;;;2.55;;
20669;SDS011;10494;50.868;4.180;2022-07-18T02:21:11;2.95;;;2.05;;
20669;SDS011;10494;50.868;4.180;2022-07-18T02:23:38;4.05;;;2.65;;
20669;SDS011;10494;50.868;4.180;2022-07-18T02:26:05;4.95;;;3.00;;
20669;SDS011;10494;50.868;4.180;2022-07-18T02:28:31;4.68;;;3.00;;
20669;SDS011;10494;50.868;4.180;2022-07-18T02:30:56;4.03;;;2.70;;
20669;SDS011;10494;50.868;4.180;2022-07-18T02:33:22;6.22;;;3.00;;
20669;SDS011;10494;50.868;4.180;2022-07-18T02:35:47;8.63;;;3.47;;
20669;SDS011;10494;50.868;4.180;2022-07-18T02:38:13;7.88;;;3.38;;
20669;SDS011;10494;50.868;4.180;2022-07-18T02:40:39;6.90;;;3.67;;
20669;SDS011;10494;50.868;4.180;2022-07-18T02:43:04;5.78;;;3.28;;
20669;SDS011;10494;50.868;4.180;2022-07-18T02:45:30;5.72;;;3.22;;
20669;SDS011;10494;50.868;4.180;2022-07-18T02:47:56;7.53;;;3.22;;
20669;SDS011;10494;50.868;4.180;2022-07-18T02:50:22;4.00;;;2.60;;
20669;SDS011;10494;50.868;4.180;2022-07-18T02:52:48;7.50;;;3.20;;
20669;SDS011;10494;50.868;4.180;2022-07-18T02:55:15;5.40;;;2.75;;
20669;SDS011;10494;50.868;4.180;2022-07-18T02:57:41;6.25;;;3.53;;
20669;SDS011;10494;50.868;4.180;2022-07-18T03:00:09;6.22;;;3.22;;
20669;SDS011;10494;50.868;4.180;2022-07-18T03:02:37;7.85;;;3.22;;
20669;SDS011;10494;50.868;4.180;2022-07-18T03:05:04;4.07;;;2.90;;
20669;SDS011;10494;50.868;4.180;2022-07-18T03:07:30;7.97;;;3.28;;
20669;SDS011;10494;50.868;4.180;2022-07-18T03:09:56;5.18;;;2.75;;
20669;SDS011;10494;50.868;4.180;2022-07-18T03:12:22;4.57;;;2.83;;
20669;SDS011;10494;50.868;4.180;2022-07-18T03:14:48;5.95;;;2.95;;
20669;SDS011;10494;50.868;4.180;2022-07-18T03:17:14;5.20;;;3.00;;
20669;SDS011;10494;50.868;4.180;2022-07-18T03:19:39;3.88;;;2.80;;
20669;SDS011;10494;50.868;4.180;2022-07-18T03:22:05;8.25;;;3.38;;
20669;SDS011;10494;50.868;4.180;2022-07-18T03:24:31;5.75;;;3.00;;
20669;SDS011;10494;50.868;4.180;2022-07-18T03:26:57;4.40;;;2.40;;
20669;SDS011;10494;50.868;4.180;2022-07-18T03:29:23;10.23;;;3.28;;
20669;SDS011;10494;50.868;4.180;2022-07-18T03:31:49;6.38;;;3.05;;
20669;SDS011;10494;50.868;4.180;2022-07-18T03:34:15;7.63;;;2.83;;
20669;SDS011;10494;50.868;4.180;2022-07-18T03:36:41;7.25;;;3.22;;
20669;SDS011;10494;50.868;4.180;2022-07-18T03:39:07;6.88;;;3.50;;
20669;SDS011;10494;50.868;4.180;2022-07-18T03:41:34;4.50;;;2.85;;
20669;SDS011;10494;50.868;4.180;2022-07-18T03:44:01;5.32;;;3.28;;
20669;SDS011;10494;50.868;4.180;2022-07-18T03:46:28;5.05;;;2.83;;
20669;SDS011;10494;50.868;4.180;2022-07-18T03:48:54;6.93;;;3.20;;
20669;SDS011;10494;50.868;4.180;2022-07-18T03:51:19;8.68;;;3.42;;
20669;SDS011;10494;50.868;4.180;2022-07-18T03:53:45;5.18;;;3.25;;
20669;SDS011;10494;50.868;4.180;2022-07-18T03:56:11;5.50;;;3.42;;
20669;SDS011;10494;50.868;4.180;2022-07-18T03:58:36;7.00;;;3.05;;
20669;SDS011;10494;50.868;4.180;2022-07-18T04:01:02;8.20;;;3.05;;
20669;SDS011;10494;50.868;4.180;2022-07-18T04:03:28;5.47;;;2.80;;
20669;SDS011;10494;50.868;4.180;2022-07-18T04:05:54;9.77;;;3.10;;
20669;SDS011;10494;50.868;4.180;2022-07-18T04:08:19;11.63;;;3.38;;
20669;SDS011;10494;50.868;4.180;2022-07-18T04:10:45;4.53;;;3.08;;
20669;SDS011;10494;50.868;4.180;2022-07-18T04:13:12;8.40;;;3.40;;
20669;SDS011;10494;50.868;4.180;2022-07-18T04:15:38;6.28;;;3.47;;
20669;SDS011;10494;50.868;4.180;2022-07-18T04:18:06;8.27;;;3.38;;
20669;SDS011;10494;50.868;4.180;2022-07-18T04:20:33;5.88;;;3.05;;
20669;SDS011;10494;50.868;4.180;2022-07-18T04:23:00;6.43;;;3.38;;
20669;SDS011;10494;50.868;4.180;2022-07-18T04:25:32;5.10;;;3.05;;
20669;SDS011;10494;50.868;4.180;2022-07-18T04:28:02;10.85;;;3.83;;
20669;SDS011;10494;50.868;4.180;2022-07-18T04:30:29;9.90;;;3.65;;
20669;SDS011;10494;50.868;4.180;2022-07-18T04:32:56;11.85;;;5.07;;
20669;SDS011;10494;50.868;4.180;2022-07-18T04:35:22;8.80;;;3.78;;
20669;SDS011;10494;50.868;4.180;2022-07-18T04:37:49;8.20;;;3.70;;
20669;SDS011;10494;50.868;4.180;2022-07-18T04:40:15;14.45;;;3.85;;
20669;SDS011;10494;50.868;4.180;2022-07-18T04:42:41;5.78;;;2.80;;
20669;SDS011;10494;50.868;4.180;2022-07-18T04:45:08;5.38;;;3.75;;
20669;SDS011;10494;50.868;4.180;2022-07-18T04:47:34;6.10;;;3.70;;
20669;SDS011;10494;50.868;4.180;2022-07-18T04:50:00;5.70;;;3.22;;
20669;SDS011;10494;50.868;4.180;2022-07-18T04:52:26;6.47;;;3.58;;
20669;SDS011;10494;50.868;4.180;2022-07-18T04:54:52;6.50;;;3.80;;
20669;SDS011;10494;50.868;4.180;2022-07-18T04:57:17;7.38;;;3.67;;
20669;SDS011;10494;50.868;4.180;2022-07-18T04:59:44;7.82;;;3.33;;
20669;SDS011;10494;50.868;4.180;2022-07-18T05:02:11;5.32;;;2.90;;
20669;SDS011;10494;50.868;4.180;2022-07-18T05:04:36;7.28;;;3.67;;
20669;SDS011;10494;50.868;4.180;2022-07-18T05:07:03;7.65;;;4.07;;
20669;SDS011;10494;50.868;4.180;2022-07-18T05:09:30;6.93;;;3.50;;
20669;SDS011;10494;50.868;4.180;2022-07-18T05:11:55;6.63;;;3.42;;
20669;SDS011;10494;50.868;4.180;2022-07-18T05:14:21;10.77;;;3.90;;
20669;SDS011;10494;50.868;4.180;2022-07-18T05:16:47;5.90;;;3.40;;
20669;SDS011;10494;50.868;4.180;2022-07-18T05:19:13;6.57;;;2.90;;
20669;SDS011;10494;50.868;4.180;2022-07-18T05:21:43;5.40;;;3.05;;
20669;SDS011;10494;50.868;4.180;2022-07-18T05:24:08;5.38;;;2.83;;
20669;SDS011;10494;50.868;4.180;2022-07-18T05:26:35;7.50;;;3.70;;
20669;SDS011;10494;50.868;4.180;2022-07-18T05:29:00;5.57;;;3.63;;
20669;SDS011;10494;50.868;4.180;2022-07-18T05:31:26;6.70;;;3.00;;
20669;SDS011;10494;50.868;4.180;2022-07-18T05:33:52;6.60;;;3.40;;
20669;SDS011;10494;50.868;4.180;2022-07-18T05:36:17;6.57;;;3.17;;
20669;SDS011;10494;50.868;4.180;2022-07-18T05:38:43;7.70;;;3.30;;
20669;SDS011;10494;50.868;4.180;2022-07-18T05:41:09;8.52;;;3.65;;
20669;SDS011;10494;50.868;4.180;2022-07-18T05:43:34;5.97;;;2.95;;
20669;SDS011;10494;50.868;4.180;2022-07-18T05:46:00;7.45;;;3.38;;
20669;SDS011;10494;50.868;4.180;2022-07-18T05:48:26;5.93;;;3.20;;
20669;SDS011;10494;50.868;4.180;2022-07-18T05:50:51;8.98;;;2.97;;
20669;SDS011;10494;50.868;4.180;2022-07-18T05:53:17;5.95;;;3.17;;
20669;SDS011;10494;50.868;4.180;2022-07-18T05:55:43;8.65;;;4.22;;
20669;SDS011;10494;50.868;4.180;2022-07-18T05:58:08;6.30;;;2.70;;
20669;SDS011;10494;50.868;4.180;2022-07-18T06:00:34;3.58;;;2.30;;
20669;SDS011;10494;50.868;4.180;2022-07-18T06:03:00;8.40;;;3.03;;
20669;SDS011;10494;50.868;4.180;2022-07-18T06:05:25;5.40;;;2.53;;
20669;SDS011;10494;50.868;4.180;2022-07-18T06:07:52;5.43;;;2.75;;
20669;SDS011;10494;50.868;4.180;2022-07-18T06:10:19;6.63;;;2.80;;
20669;SDS011;10494;50.868;4.180;2022-07-18T06:12:44;11.80;;;2.80;;
20669;SDS011;10494;50.868;4.180;2022-07-18T06:15:10;5.18;;;2.70;;
20669;SDS011;10494;50.868;4.180;2022-07-18T06:17:36;6.57;;;2.90;;
20669;SDS011;10494;50.868;4.180;2022-07-18T06:20:02;8.00;;;3.13;;
20669;SDS011;10494;50.868;4.180;2022-07-18T06:22:30;7.43;;;2.80;;
20669;SDS011;10494;50.868;4.180;2022-07-18T06:24:55;6.78;;;3.10;;
20669;SDS011;10494;50.868;4.180;2022-07-18T06:27:21;4.88;;;2.92;;
20669;SDS011;10494;50.868;4.180;2022-07-18T06:29:47;8.95;;;3.50;;
20669;SDS011;10494;50.868;4.180;2022-07-18T06:32:12;16.08;;;3.67;;
20669;SDS011;10494;50.868;4.180;2022-07-18T06:34:38;7.10;;;3.33;;
20669;SDS011;10494;50.868;4.180;2022-07-18T06:37:03;11.43;;;4.03;;
20669;SDS011;10494;50.868;4.180;2022-07-18T06:39:29;14.52;;;4.32;;
20669;SDS011;10494;50.868;4.180;2022-07-18T06:41:55;6.60;;;3.10;;
20669;SDS011;10494;50.868;4.180;2022-07-18T06:44:20;6.90;;;3.08;;
20669;SDS011;10494;50.868;4.180;2022-07-18T06:46:46;7.80;;;2.58;;
20669;SDS011;10494;50.868;4.180;2022-07-18T06:49:11;8.85;;;3.28;;
20669;SDS011;10494;50.868;4.180;2022-07-18T06:51:37;8.77;;;2.60;;
20669;SDS011;10494;50.868;4.180;2022-07-18T06:54:02;7.55;;;2.80;;
20669;SDS011;10494;50.868;4.180;2022-07-18T06:56:28;7.95;;;2.35;;
20669;SDS011;10494;50.868;4.180;2022-07-18T06:58:54;8.00;;;2.83;;
20669;SDS011;10494;50.868;4.180;2022-07-18T07:01:20;5.63;;;2.50;;
20669;SDS011;10494;50.868;4.180;2022-07-18T07:03:45;6.22;;;2.17;;
20669;SDS011;10494;50.868;4.180;2022-07-18T07:06:12;4.60;;;1.80;;
20669;SDS011;10494;50.868;4.180;2022-07-18T07:08:40;6.20;;;2.25;;
20669;SDS011;10494;50.868;4.180;2022-07-18T07:11:07;10.68;;;2.28;;
20669;SDS011;10494;50.868;4.180;2022-07-18T07:13:33;5.72;;;2.60;;
20669;SDS011;10494;50.868;4.180;2022-07-18T07:15:58;6.72;;;2.28;;
20669;SDS011;10494;50.868;4.180;2022-07-18T07:18:24;7.55;;;2.33;;
20669;SDS011;10494;50.868;4.180;2022-07-18T07:20:49;3.30;;;1.85;;
20669;SDS011;10494;50.868;4.180;2022-07-18T07:23:15;6.05;;;2.30;;
20669;SDS011;10494;50.868;4.180;2022-07-18T07:25:42;3.88;;;1.73;;
20669;SDS011;10494;50.868;4.180;2022-07-18T07:28:08;6.70;;;2.00;;
20669;SDS011;10494;50.868;4.180;2022-07-18T07:30:34;5.18;;;2.22;;
20669;SDS011;10494;50.868;4.180;2022-07-18T07:33:00;7.30;;;1.88;;
20669;SDS011;10494;50.868;4.180;2022-07-18T07:35:26;4.40;;;1.73;;
20669;SDS011;10494;50.868;4.180;2022-07-18T07:37:54;5.80;;;1.90;;
20669;SDS011;10494;50.868;4.180;2022-07-18T07:40:22;9.18;;;2.70;;
20669;SDS011;10494;50.868;4.180;2022-07-18T07:42:51;4.35;;;2.15;;
20669;SDS011;10494;50.868;4.180;2022-07-18T07:45:28;9.43;;;2.15;;
20669;SDS011;10494;50.868;4.180;2022-07-18T07:47:54;3.22;;;1.80;;
20669;SDS011;10494;50.868;4.180;2022-07-18T07:50:20;4.22;;;2.20;;
20669;SDS011;10494;50.868;4.180;2022-07-18T07:52:45;4.88;;;1.67;;
20669;SDS011;10494;50.868;4.180;2022-07-18T07:55:11;4.53;;;2.10;;
20669;SDS011;10494;50.868;4.180;2022-07-18T07:57:36;7.22;;;2.25;;
20669;SDS011;10494;50.868;4.180;2022-07-18T08:00:03;8.38;;;2.05;;
20669;SDS011;10494;50.868;4.180;2022-07-18T08:02:31;4.88;;;2.28;;
20669;SDS011;10494;50.868;4.180;2022-07-18T08:04:56;7.95;;;1.90;;
20669;SDS011;10494;50.868;4.180;2022-07-18T08:07:22;5.07;;;2.10;;
20669;SDS011;10494;50.868;4.180;2022-07-18T08:09:48;3.55;;;2.17;;
20669;SDS011;10494;50.868;4.180;2022-07-18T08:12:14;4.38;;;2.13;;
20669;SDS011;10494;50.868;4.180;2022-07-18T08:14:39;6.85;;;2.17;;
20669;SDS011;10494;50.868;4.180;2022-07-18T08:17:07;5.63;;;1.77;;
20669;SDS011;10494;50.868;4.180;2022-07-18T08:19:32;3.25;;;1.85;;
20669;SDS011;10494;50.868;4.180;2022-07-18T08:21:58;5.65;;;1.90;;
20669;SDS011;10494;50.868;4.180;2022-07-18T08:24:24;5.65;;;1.95;;
20669;SDS011;10494;50.868;4.180;2022-07-18T08:26:50;7.30;;;2.05;;
20669;SDS011;10494;50.868;4.180;2022-07-18T08:29:16;5.10;;;1.83;;
20669;SDS011;10494;50.868;4.180;2022-07-18T08:31:41;3.28;;;1.60;;
20669;SDS011;10494;50.868;4.180;2022-07-18T08:34:07;7.00;;;1.73;;
20669;SDS011;10494;50.868;4.180;2022-07-18T08:36:32;2.70;;;1.80;;
20669;SDS011;10494;50.868;4.180;2022-07-18T08:38:58;3.65;;;1.75;;
20669;SDS011;10494;50.868;4.180;2022-07-18T08:41:25;3.65;;;1.40;;
20669;SDS011;10494;50.868;4.180;2022-07-18T08:43:52;2.85;;;1.50;;
20669;SDS011;10494;50.868;4.180;2022-07-18T08:46:19;3.08;;;1.77;;
20669;SDS011;10494;50.868;4.180;2022-07-18T08:48:46;6.97;;;1.80;;
20669;SDS011;10494;50.868;4.180;2022-07-18T08:51:16;6.28;;;1.60;;
20669;SDS011;10494;50.868;4.180;2022-07-18T08:53:43;4.70;;;1.40;;
20669;SDS011;10494;50.868;4.180;2022-07-18T08:56:11;2.72;;;1.38;;
20669;SDS011;10494;50.868;4.180;2022-07-18T08:58:37;5.82;;;1.58;;
20669;SDS011;10494;50.868;4.180;2022-07-18T09:01:03;5.68;;;1.63;;
20669;SDS011;10494;50.868;4.180;2022-07-18T09:03:28;3.53;;;1.67;;
20669;SDS011;10494;50.868;4.180;2022-07-18T09:06:07;3.00;;;1.63;;
20669;SDS011;10494;50.868;4.180;2022-07-18T09:08:38;3.83;;;1.50;;
20669;SDS011;10494;50.868;4.180;2022-07-18T09:11:09;4.57;;;1.35;;
20669;SDS011;10494;50.868;4.180;2022-07-18T09:13:37;6.38;;;1.80;;
20669;SDS011;10494;50.868;4.180;2022-07-18T09:16:08;3.75;;;1.65;;
20669;SDS011;10494;50.868;4.180;2022-07-18T09:21:07;4.50;;;1.23;;
20669;SDS011;10494;50.868;4.180;2022-07-18T09:23:34;7.80;;;1.75;;
20669;SDS011;10494;50.868;4.180;2022-07-18T09:26:01;6.80;;;1.85;;
20669;SDS011;10494;50.868;4.180;2022-07-18T09:28:28;4.57;;;1.30;;
20669;SDS011;10494;50.868;4.180;2022-07-18T09:30:55;2.58;;;1.33;;
20669;SDS011;10494;50.868;4.180;2022-07-18T09:33:21;3.67;;;1.35;;
20669;SDS011;10494;50.868;4.180;2022-07-18T09:35:49;5.55;;;1.40;;
20669;SDS011;10494;50.868;4.180;2022-07-18T09:38:17;4.40;;;1.48;;
20669;SDS011;10494;50.868;4.180;2022-07-18T09:40:49;3.28;;;1.42;;
20669;SDS011;10494;50.868;4.180;2022-07-18T09:43:16;4.30;;;1.20;;
20669;SDS011;10494;50.868;4.180;2022-07-18T09:45:45;2.13;;;1.65;;
20669;SDS011;10494;50.868;4.180;2022-07-18T09:48:18;2.20;;;1.05;;
20669;SDS011;10494;50.868;4.180;2022-07-18T09:50:52;5.15;;;1.27;;
20669;SDS011;10494;50.868;4.180;2022-07-18T09:53:34;3.15;;;1.70;;
20669;SDS011;10494;50.868;4.180;2022-07-18T09:56:02;2.72;;;1.02;;
20669;SDS011;10494;50.868;4.180;2022-07-18T09:58:30;5.00;;;1.20;;
20669;SDS011;10494;50.868;4.180;2022-07-18T10:00:58;3.38;;;1.20;;
20669;SDS011;10494;50.868;4.180;2022-07-18T10:03:25;3.92;;;1.40;;
20669;SDS011;10494;50.868;4.180;2022-07-18T10:05:53;2.83;;;1.10;;
20669;SDS011;10494;50.868;4.180;2022-07-18T10:08:21;1.20;;;1.02;;
20669;SDS011;10494;50.868;4.180;2022-07-18T10:10:49;4.80;;;1.30;;
20669;SDS011;10494;50.868;4.180;2022-07-18T10:13:16;6.18;;;1.20;;
20669;SDS011;10494;50.868;4.180;2022-07-18T10:15:44;3.22;;;1.23;;
20669;SDS011;10494;50.868;4.180;2022-07-18T10:18:11;4.68;;;1.33;;
20669;SDS011;10494;50.868;4.180;2022-07-18T10:20:41;2.10;;;1.00;;
20669;SDS011;10494;50.868;4.180;2022-07-18T10:23:25;3.75;;;1.05;;
20669;SDS011;10494;50.868;4.180;2022-07-18T10:26:08;1.25;;;0.95;;
20669;SDS011;10494;50.868;4.180;2022-07-18T10:31:30;1.15;;;0.70;;
20669;SDS011;10494;50.868;4.180;2022-07-18T10:39:10;6.82;;;1.45;;
20669;SDS011;10494;50.868;4.180;2022-07-18T10:57:28;4.53;;;1.23;;
20669;SDS011;10494;50.868;4.180;2022-07-18T11:00:14;5.70;;;1.27;;
20669;SDS011;10494;50.868;4.180;2022-07-18T11:05:31;3.33;;;1.30;;
20669;SDS011;10494;50.868;4.180;2022-07-18T11:08:18;2.47;;;1.30;;
20669;SDS011;10494;50.868;4.180;2022-07-18T11:21:15;3.22;;;1.30;;
20669;SDS011;10494;50.868;4.180;2022-07-18T11:23:43;2.78;;;1.20;;
20669;SDS011;10494;50.868;4.180;2022-07-18T11:26:15;1.63;;;1.00;;
20669;SDS011;10494;50.868;4.180;2022-07-18T11:28:49;4.28;;;1.08;;
20669;SDS011;10494;50.868;4.180;2022-07-18T11:31:25;2.47;;;1.13;;
20669;SDS011;10494;50.868;4.180;2022-07-18T11:33:51;1.55;;;1.08;;
20669;SDS011;10494;50.868;4.180;2022-07-18T11:36:19;2.63;;;1.02;;
20669;SDS011;10494;50.868;4.180;2022-07-18T11:38:57;2.70;;;1.13;;
20669;SDS011;10494;50.868;4.180;2022-07-18T11:41:24;2.08;;;1.17;;
20669;SDS011;10494;50.868;4.180;2022-07-18T11:43:50;4.43;;;1.00;;
20669;SDS011;10494;50.868;4.180;2022-07-18T11:46:25;21.52;;;2.00;;
20669;SDS011;10494;50.868;4.180;2022-07-18T11:48:58;4.55;;;1.30;;
20669;SDS011;10494;50.868;4.180;2022-07-18T11:51:24;5.90;;;1.20;;
20669;SDS011;10494;50.868;4.180;2022-07-18T11:53:52;6.07;;;1.15;;
20669;SDS011;10494;50.868;4.180;2022-07-18T11:56:19;2.45;;;1.27;;
20669;SDS011;10494;50.868;4.180;2022-07-18T11:58:47;3.30;;;1.60;;
20669;SDS011;10494;50.868;4.180;2022-07-18T12:01:14;2.28;;;1.20;;
20669;SDS011;10494;50.868;4.180;2022-07-18T12:03:44;4.60;;;1.20;;
20669;SDS011;10494;50.868;4.180;2022-07-18T12:06:17;4.10;;;1.15;;
20669;SDS011;10494;50.868;4.180;2022-07-18T12:08:48;4.72;;;1.42;;
20669;SDS011;10494;50.868;4.180;2022-07-18T12:11:37;5.15;;;1.30;;
20669;SDS011;10494;50.868;4.180;2022-07-18T12:32:39;6.78;;;1.50;;
20669;SDS011;10494;50.868;4.180;2022-07-18T12:35:07;1.42;;;1.25;;
20669;SDS011;10494;50.868;4.180;2022-07-18T12:37:34;1.30;;;0.98;;
20669;SDS011;10494;50.868;4.180;2022-07-18T12:40:08;2.97;;;1.00;;
20669;SDS011;10494;50.868;4.180;2022-07-18T12:42:39;6.93;;;1.10;;
20669;SDS011;10494;50.868;4.180;2022-07-18T12:45:06;2.10;;;1.27;;
20669;SDS011;10494;50.868;4.180;2022-07-18T12:47:33;2.63;;;1.10;;
20669;SDS011;10494;50.868;4.180;2022-07-18T12:49:59;2.58;;;1.33;;
20669;SDS011;10494;50.868;4.180;2022-07-18T12:52:24;2.60;;;1.30;;
20669;SDS011;10494;50.868;4.180;2022-07-18T12:54:50;1.63;;;1.27;;
20669;SDS011;10494;50.868;4.180;2022-07-18T12:57:16;6.85;;;1.33;;
20669;SDS011;10494;50.868;4.180;2022-07-18T12:59:43;2.17;;;1.10;;
20669;SDS011;10494;50.868;4.180;2022-07-18T13:02:10;3.47;;;1.20;;
20669;SDS011;10494;50.868;4.180;2022-07-18T13:04:36;5.28;;;0.90;;
20669;SDS011;10494;50.868;4.180;2022-07-18T13:07:01;4.05;;;1.45;;
20669;SDS011;10494;50.868;4.180;2022-07-18T13:09:27;2.65;;;1.35;;
20669;SDS011;10494;50.868;4.180;2022-07-18T13:11:53;3.75;;;1.25;;
20669;SDS011;10494;50.868;4.180;2022-07-18T13:14:18;6.43;;;1.40;;
20669;SDS011;10494;50.868;4.180;2022-07-18T13:16:44;3.45;;;1.25;;
20669;SDS011;10494;50.868;4.180;2022-07-18T13:19:12;1.20;;;1.10;;
20669;SDS011;10494;50.868;4.180;2022-07-18T13:21:38;4.72;;;1.40;;
20669;SDS011;10494;50.868;4.180;2022-07-18T13:24:04;4.38;;;1.10;;
20669;SDS011;10494;50.868;4.180;2022-07-18T13:26:30;6.07;;;1.38;;
20669;SDS011;10494;50.868;4.180;2022-07-18T13:28:56;7.95;;;1.30;;
20669;SDS011;10494;50.868;4.180;2022-07-18T13:31:21;2.45;;;1.20;;
20669;SDS011;10494;50.868;4.180;2022-07-18T13:33:47;3.63;;;1.35;;
20669;SDS011;10494;50.868;4.180;2022-07-18T13:36:13;3.30;;;1.10;;
20669;SDS011;10494;50.868;4.180;2022-07-18T13:38:39;2.47;;;1.10;;
20669;SDS011;10494;50.868;4.180;2022-07-18T13:41:05;3.83;;;1.25;;
20669;SDS011;10494;50.868;4.180;2022-07-18T13:43:30;3.30;;;1.15;;
20669;SDS011;10494;50.868;4.180;2022-07-18T13:45:56;2.45;;;1.30;;
20669;SDS011;10494;50.868;4.180;2022-07-18T13:48:22;2.75;;;1.42;;
20669;SDS011;10494;50.868;4.180;2022-07-18T13:50:48;2.80;;;1.50;;
20669;SDS011;10494;50.868;4.180;2022-07-18T13:53:13;6.30;;;1.10;;
20669;SDS011;10494;50.868;4.180;2022-07-18T13:55:39;1.67;;;1.20;;
20669;SDS011;10494;50.868;4.180;2022-07-18T13:58:05;2.42;;;1.30;;
20669;SDS011;10494;50.868;4.180;2022-07-18T14:00:30;2.00;;;1.15;;
20669;SDS011;10494;50.868;4.180;2022-07-18T14:02:56;4.07;;;1.20;;
20669;SDS011;10494;50.868;4.180;2022-07-18T14:05:22;4.75;;;1.10;;
20669;SDS011;10494;50.868;4.180;2022-07-18T14:07:47;2.65;;;1.30;;
20669;SDS011;10494;50.868;4.180;2022-07-18T14:10:13;2.97;;;1.10;;
20669;SDS011;10494;50.868;4.180;2022-07-18T14:12:40;1.70;;;1.15;;
20669;SDS011;10494;50.868;4.180;2022-07-18T14:15:06;2.22;;;1.10;;
20669;SDS011;10494;50.868;4.180;2022-07-18T14:17:32;6.07;;;1.25;;
20669;SDS011;10494;50.868;4.180;2022-07-18T14:19:58;2.92;;;1.30;;
20669;SDS011;10494;50.868;4.180;2022-07-18T14:22:24;4.28;;;0.90;;
20669;SDS011;10494;50.868;4.180;2022-07-18T14:24:50;4.10;;;1.20;;
20669;SDS011;10494;50.868;4.180;2022-07-18T14:27:15;2.42;;;1.10;;
20669;SDS011;10494;50.868;4.180;2022-07-18T14:29:41;4.60;;;1.42;;
20669;SDS011;10494;50.868;4.180;2022-07-18T14:32:06;3.80;;;0.90;;
20669;SDS011;10494;50.868;4.180;2022-07-18T14:34:32;2.13;;;1.00;;
20669;SDS011;10494;50.868;4.180;2022-07-18T14:36:58;3.10;;;1.50;;
20669;SDS011;10494;50.868;4.180;2022-07-18T14:39:24;7.60;;;1.20;;
20669;SDS011;10494;50.868;4.180;2022-07-18T14:41:50;4.72;;;1.30;;
20669;SDS011;10494;50.868;4.180;2022-07-18T14:44:16;6.10;;;1.42;;
20669;SDS011;10494;50.868;4.180;2022-07-18T14:46:41;1.25;;;1.08;;
20669;SDS011;10494;50.868;4.180;2022-07-18T14:49:07;1.55;;;1.17;;
20669;SDS011;10494;50.868;4.180;2022-07-18T14:51:32;3.03;;;1.33;;
20669;SDS011;10494;50.868;4.180;2022-07-18T14:53:58;3.25;;;1.10;;
20669;SDS011;10494;50.868;4.180;2022-07-18T14:56:24;1.90;;;1.15;;
20669;SDS011;10494;50.868;4.180;2022-07-18T14:58:50;4.97;;;1.00;;
20669;SDS011;10494;50.868;4.180;2022-07-18T15:01:16;3.67;;;1.35;;
20669;SDS011;10494;50.868;4.180;2022-07-18T15:03:44;3.35;;;1.02;;
20669;SDS011;10494;50.868;4.180;2022-07-18T15:06:10;1.98;;;1.05;;
20669;SDS011;10494;50.868;4.180;2022-07-18T15:08:36;3.55;;;1.08;;
20669;SDS011;10494;50.868;4.180;2022-07-18T15:11:02;2.67;;;1.10;;
20669;SDS011;10494;50.868;4.180;2022-07-18T15:13:27;1.52;;;0.90;;
20669;SDS011;10494;50.868;4.180;2022-07-18T15:15:53;1.65;;;1.25;;
20669;SDS011;10494;50.868;4.180;2022-07-18T15:18:19;1.13;;;0.98;;
20669;SDS011;10494;50.868;4.180;2022-07-18T15:20:44;1.65;;;0.90;;
20669;SDS011;10494;50.868;4.180;2022-07-18T15:23:10;1.60;;;1.02;;
20669;SDS011;10494;50.868;4.180;2022-07-18T15:25:36;2.45;;;1.25;;
20669;SDS011;10494;50.868;4.180;2022-07-18T15:28:01;2.30;;;1.30;;
20669;SDS011;10494;50.868;4.180;2022-07-18T15:30:27;1.52;;;1.25;;
20669;SDS011;10494;50.868;4.180;2022-07-18T15:32:52;4.30;;;1.30;;
20669;SDS011;10494;50.868;4.180;2022-07-18T15:35:18;4.97;;;1.10;;
20669;SDS011;10494;50.868;4.180;2022-07-18T15:37:44;3.58;;;1.08;;
20669;SDS011;10494;50.868;4.180;2022-07-18T15:40:09;3.95;;;1.35;;
20669;SDS011;10494;50.868;4.180;2022-07-18T15:42:35;5.82;;;1.88;;
20669;SDS011;10494;50.868;4.180;2022-07-18T15:45:01;1.20;;;1.08;;